Time;durP1;ratioP1;P1;durP2;ratioP2;P2;SDS_P1;SDS_P2;PMS_P1;PMS_P2;Temp;Humidity;BMP_temperature;BMP_pressure;BME280_temperature;BME280_humidity;BME280_pressure;Samples;Min_cycle;Max_cycle;Signal;HPM_P1;HPM_P2
2023/01/09 00:00:07;;;;;;;;;;;29.40;90.80;;;;;;5051255;28;19994;-76
2023/01/09 00:02:34;;;;;;;;;;;29.30;91.00;;;;;;5064691;28;19912;-71
2023/01/09 00:05:01;;;;;;;;;;;29.20;91.70;;;;;;5068743;28;19939;-72
2023/01/09 00:07:27;;;;;;;;;;;29.40;90.70;;;;;;5061398;28;19916;-71
2023/01/09 00:09:54;;;;;;;;;;;29.30;90.60;;;;;;5051261;28;19995;-74
2023/01/09 00:12:20;;;;;;;;;;;29.50;90.70;;;;;;5067681;28;19920;-73
2023/01/09 00:14:47;;;;;;;;;;;29.50;90.00;;;;;;5065578;28;20313;-74
2023/01/09 00:17:14;;;;;;;;;;;29.50;90.80;;;;;;5067971;28;19924;-74
2023/01/09 00:19:40;;;;;;;;;;;29.60;90.70;;;;;;5065733;28;20003;-74
2023/01/09 00:22:08;;;;;;;;;;;30.00;90.80;;;;;;5070696;28;20345;-74
2023/01/09 00:24:38;;;;;;;;;;;30.40;91.00;;;;;;5067062;28;19976;-72
2023/01/09 00:27:04;;;;;;;;;;;30.80;90.10;;;;;;5069265;28;20031;-72
2023/01/09 00:29:31;;;;;;;;;;;30.60;87.60;;;;;;5069722;28;19970;-73
2023/01/09 00:31:58;;;;;;;;;;;30.30;89.40;;;;;;5065973;28;19912;-73
2023/01/09 00:34:25;;;;;;;;;;;30.30;89.10;;;;;;5056480;28;20020;-74
2023/01/09 00:36:54;;;;;;;;;;;30.30;88.70;;;;;;5069564;28;19913;-73
2023/01/09 00:39:21;;;;;;;;;;;30.40;88.10;;;;;;5054843;28;19963;-74
2023/01/09 00:41:52;;;;;;;;;;;30.40;89.10;;;;;;5061752;28;20329;-73
2023/01/09 00:44:18;;;;;;;;;;;30.50;87.10;;;;;;5063852;28;19917;-74
2023/01/09 00:46:47;;;;;;;;;;;30.70;88.20;;;;;;5076296;28;19917;-72
2023/01/09 00:49:15;;;;;;;;;;;31.20;88.60;;;;;;5063655;28;19958;-72
2023/01/09 00:51:42;;;;;;;;;;;31.50;86.80;;;;;;5059740;28;19919;-73
2023/01/09 00:54:09;;;;;;;;;;;31.70;85.00;;;;;;5067997;28;19935;-74
2023/01/09 00:56:36;;;;;;;;;;;32.00;85.70;;;;;;5069997;28;19912;-74
2023/01/09 00:59:04;;;;;;;;;;;32.20;82.40;;;;;;5063439;28;19920;-74
2023/01/09 01:01:30;;;;;;;;;;;32.00;84.10;;;;;;5066568;28;19917;-75
2023/01/09 01:03:57;;;;;;;;;;;32.30;84.50;;;;;;5060263;28;19912;-72
2023/01/09 01:09:08;;;;;;;;;;;32.70;82.10;;;;;;5069222;28;19981;-74
2023/01/09 01:11:35;;;;;;;;;;;32.90;83.20;;;;;;5073314;28;20415;-73
2023/01/09 01:14:02;;;;;;;;;;;32.70;81.60;;;;;;5065053;28;19919;-74
2023/01/09 01:16:28;;;;;;;;;;;32.40;82.20;;;;;;5066114;28;19920;-75
2023/01/09 01:18:55;;;;;;;;;;;32.10;82.00;;;;;;5069040;28;19919;-75
2023/01/09 01:21:22;;;;;;;;;;;32.30;84.90;;;;;;5070493;28;20346;-73
2023/01/09 01:23:49;;;;;;;;;;;32.60;80.90;;;;;;5072692;28;19912;-74
2023/01/09 01:26:16;;;;;;;;;;;32.40;82.30;;;;;;5062152;28;19920;-74
2023/01/09 01:28:42;;;;;;;;;;;32.70;83.50;;;;;;5062401;28;20016;-74
2023/01/09 01:31:15;;;;;;;;;;;33.00;82.10;;;;;;5064083;28;19912;-74
2023/01/09 01:33:42;;;;;;;;;;;33.30;81.10;;;;;;5065341;28;19958;-73
2023/01/09 01:36:09;;;;;;;;;;;33.60;80.10;;;;;;5071413;28;19912;-74
2023/01/09 01:38:35;;;;;;;;;;;33.70;82.00;;;;;;5069828;28;19912;-74
2023/01/09 01:41:03;;;;;;;;;;;34.00;84.40;;;;;;5073050;28;19964;-72
2023/01/09 01:43:49;;;;;;;;;;;34.20;83.40;;;;;;5060794;28;19913;-73
2023/01/09 01:46:17;;;;;;;;;;;34.40;81.50;;;;;;5063068;28;19926;-73
2023/01/09 01:48:43;;;;;;;;;;;34.60;80.00;;;;;;5063569;28;19928;-73
2023/01/09 01:51:13;;;;;;;;;;;34.60;81.10;;;;;;5065210;28;19919;-73
2023/01/09 01:53:42;;;;;;;;;;;34.60;78.40;;;;;;5078553;28;19935;-72
2023/01/09 01:56:19;;;;;;;;;;;34.80;78.40;;;;;;5071458;28;19924;-72
2023/01/09 01:58:51;;;;;;;;;;;34.90;78.80;;;;;;5067068;28;19916;-72
2023/01/09 02:01:22;;;;;;;;;;;34.60;75.60;;;;;;5069541;28;19919;-72
2023/01/09 02:03:49;;;;;;;;;;;34.40;75.60;;;;;;5066653;28;20241;-72
2023/01/09 02:06:16;;;;;;;;;;;34.50;76.60;;;;;;5071473;28;19920;-72
2023/01/09 02:08:43;;;;;;;;;;;34.60;77.50;;;;;;5067046;28;19913;-72
2023/01/09 02:11:11;;;;;;;;;;;34.70;78.40;;;;;;5072791;28;19958;-75
2023/01/09 02:13:39;;;;;;;;;;;34.80;76.30;;;;;;5067346;28;19956;-75
2023/01/09 02:16:28;;;;;;;;;;;34.90;76.30;;;;;;5068611;28;19966;-74
2023/01/09 02:19:13;;;;;;;;;;;35.00;77.50;;;;;;5067193;28;19992;-76
2023/01/09 02:21:45;;;;;;;;;;;35.20;79.00;;;;;;5066071;28;20366;-75
2023/01/09 02:24:36;;;;;;;;;;;35.30;77.40;;;;;;5066326;28;19913;-73
2023/01/09 02:27:17;;;;;;;;;;;35.00;75.50;;;;;;5072341;28;20378;-73
2023/01/09 02:30:02;;;;;;;;;;;34.90;75.90;;;;;;5069520;28;20286;-73
2023/01/09 02:32:35;;;;;;;;;;;35.00;75.70;;;;;;5071622;28;19908;-73
2023/01/09 02:35:07;;;;;;;;;;;35.10;75.40;;;;;;5072345;28;20436;-74
2023/01/09 02:37:37;;;;;;;;;;;35.10;77.00;;;;;;5063431;28;19912;-73
2023/01/09 02:40:16;;;;;;;;;;;35.20;77.50;;;;;;5067647;28;20324;-74
2023/01/09 02:42:43;;;;;;;;;;;35.40;77.00;;;;;;5070414;28;20343;-74
2023/01/09 02:45:10;;;;;;;;;;;35.40;76.10;;;;;;5070231;28;19921;-74
2023/01/09 02:47:41;;;;;;;;;;;35.30;74.60;;;;;;5066469;28;19916;-74
2023/01/09 02:50:20;;;;;;;;;;;34.80;74.00;;;;;;5061749;28;19916;-75
2023/01/09 02:53:02;;;;;;;;;;;34.40;75.50;;;;;;5069394;28;19920;-74
2023/01/09 02:55:47;;;;;;;;;;;34.50;77.40;;;;;;5081093;28;19959;-75
2023/01/09 02:58:32;;;;;;;;;;;34.90;77.10;;;;;;5058390;28;19982;-75
2023/01/09 03:01:16;;;;;;;;;;;35.30;77.50;;;;;;5068124;28;19974;-75
2023/01/09 03:03:48;;;;;;;;;;;35.70;78.50;;;;;;5068171;28;19916;-77
2023/01/09 03:06:15;;;;;;;;;;;36.00;74.50;;;;;;5066025;28;20010;-75
2023/01/09 03:09:02;;;;;;;;;;;36.10;75.60;;;;;;5062030;28;20502;-75
2023/01/09 03:11:33;;;;;;;;;;;35.90;74.10;;;;;;5070312;28;19917;-75
2023/01/09 03:14:03;;;;;;;;;;;36.00;76.40;;;;;;5070032;28;19912;-76
2023/01/09 03:16:32;;;;;;;;;;;36.20;74.70;;;;;;5067731;28;19912;-77
2023/01/09 03:19:00;;;;;;;;;;;36.40;73.80;;;;;;5065636;28;20389;-75
2023/01/09 03:21:27;;;;;;;;;;;36.50;73.20;;;;;;5068040;28;19939;-76
2023/01/09 03:23:58;;;;;;;;;;;36.60;73.70;;;;;;5064600;28;19916;-76
2023/01/09 03:26:25;;;;;;;;;;;36.40;73.80;;;;;;5065680;28;19985;-76
2023/01/09 03:28:52;;;;;;;;;;;36.20;73.30;;;;;;5066810;28;19959;-75
2023/01/09 03:31:18;;;;;;;;;;;36.20;76.20;;;;;;5061554;28;19912;-75
2023/01/09 03:33:45;;;;;;;;;;;36.20;74.80;;;;;;5068605;28;19958;-75
2023/01/09 03:36:12;;;;;;;;;;;36.40;73.90;;;;;;5068803;28;19921;-77
2023/01/09 03:38:39;;;;;;;;;;;36.50;74.10;;;;;;5068434;28;19912;-76
2023/01/09 03:41:06;;;;;;;;;;;36.40;75.60;;;;;;5062418;28;19920;-75
2023/01/09 03:43:33;;;;;;;;;;;36.30;76.20;;;;;;5066645;28;20378;-74
2023/01/09 03:45:59;;;;;;;;;;;36.00;76.60;;;;;;5070805;28;20178;-75
2023/01/09 03:48:26;;;;;;;;;;;35.90;77.00;;;;;;5070055;28;19916;-75
2023/01/09 03:50:54;;;;;;;;;;;35.70;76.70;;;;;;5068499;28;19919;-74
2023/01/09 03:53:21;;;;;;;;;;;35.60;76.50;;;;;;5058812;28;20383;-79
2023/01/09 03:55:49;;;;;;;;;;;35.20;78.30;;;;;;5068420;28;19912;-77
2023/01/09 03:58:17;;;;;;;;;;;35.00;78.20;;;;;;5063173;28;20386;-77
2023/01/09 04:00:51;;;;;;;;;;;35.10;78.20;;;;;;5067118;28;19997;-80
2023/01/09 04:03:18;;;;;;;;;;;35.00;77.20;;;;;;5061992;28;19913;-77
2023/01/09 04:05:46;;;;;;;;;;;34.80;76.60;;;;;;5064219;28;19968;-76
2023/01/09 04:08:13;;;;;;;;;;;34.70;78.20;;;;;;5069679;28;19912;-77
2023/01/09 04:10:40;;;;;;;;;;;34.80;78.10;;;;;;5068558;28;20268;-76
2023/01/09 04:13:06;;;;;;;;;;;34.80;78.80;;;;;;5063274;28;19916;-76
2023/01/09 04:15:33;;;;;;;;;;;34.60;78.80;;;;;;5066082;28;19978;-75
2023/01/09 04:18:00;;;;;;;;;;;34.60;78.80;;;;;;5068333;28;19916;-79
2023/01/09 04:20:27;;;;;;;;;;;34.50;79.20;;;;;;5067972;28;19923;-76
2023/01/09 04:22:54;;;;;;;;;;;34.40;79.10;;;;;;5086081;28;19921;-76
2023/01/09 04:25:23;;;;;;;;;;;34.20;80.20;;;;;;5069288;28;19920;-80
2023/01/09 04:27:50;;;;;;;;;;;34.00;79.70;;;;;;5067211;28;19966;-73
2023/01/09 04:30:17;;;;;;;;;;;33.90;80.80;;;;;;5065099;28;20013;-75
2023/01/09 04:32:43;;;;;;;;;;;33.80;79.70;;;;;;5055501;28;19917;-78
2023/01/09 04:35:10;;;;;;;;;;;33.70;80.80;;;;;;5067566;28;19912;-75
2023/01/09 04:37:37;;;;;;;;;;;33.50;80.60;;;;;;5069322;28;19925;-73
2023/01/09 04:40:08;;;;;;;;;;;33.30;81.10;;;;;;5060054;28;19970;-73
2023/01/09 04:42:34;;;;;;;;;;;33.20;81.60;;;;;;5075782;28;19913;-75
2023/01/09 04:45:01;;;;;;;;;;;33.10;82.00;;;;;;5074010;28;19947;-74
2023/01/09 04:47:30;;;;;;;;;;;33.00;82.70;;;;;;5074320;28;19912;-75
2023/01/09 04:49:56;;;;;;;;;;;32.90;82.50;;;;;;5073514;28;19920;-76
2023/01/09 04:52:23;;;;;;;;;;;32.80;82.50;;;;;;5073923;28;20477;-75
2023/01/09 04:54:50;;;;;;;;;;;32.90;81.90;;;;;;5073752;28;20364;-75
2023/01/09 04:57:17;;;;;;;;;;;32.90;82.20;;;;;;5069432;28;19916;-76
2023/01/09 04:59:43;;;;;;;;;;;32.70;81.60;;;;;;5060090;28;20433;-76
2023/01/09 05:02:11;;;;;;;;;;;32.70;81.70;;;;;;5073385;28;19999;-76
2023/01/09 05:04:37;;;;;;;;;;;32.60;81.40;;;;;;5068413;28;20017;-73
2023/01/09 05:07:04;;;;;;;;;;;32.50;80.80;;;;;;5069328;28;19921;-78
2023/01/09 05:09:30;;;;;;;;;;;32.40;81.90;;;;;;5070513;28;20397;-74
2023/01/09 05:11:57;;;;;;;;;;;32.30;82.00;;;;;;5065615;28;19912;-79
2023/01/09 05:14:25;;;;;;;;;;;32.40;81.20;;;;;;5071635;28;20003;-77
2023/01/09 05:16:51;;;;;;;;;;;32.40;80.90;;;;;;5066717;28;19965;-77
2023/01/09 05:19:18;;;;;;;;;;;32.30;81.40;;;;;;5058776;28;19917;-74
2023/01/09 05:21:44;;;;;;;;;;;32.30;81.10;;;;;;5062922;28;19912;-77
2023/01/09 05:24:11;;;;;;;;;;;32.30;81.10;;;;;;5061264;28;19923;-79
2023/01/09 05:26:38;;;;;;;;;;;32.10;81.20;;;;;;5067762;28;19939;-74
2023/01/09 05:29:04;;;;;;;;;;;32.00;82.30;;;;;;5064373;28;19913;-74
2023/01/09 05:31:31;;;;;;;;;;;31.90;81.80;;;;;;5064121;28;19987;-75
2023/01/09 05:33:59;;;;;;;;;;;31.80;81.50;;;;;;5061188;28;21737;-77
2023/01/09 05:36:27;;;;;;;;;;;31.60;82.20;;;;;;5064151;28;19916;-74
2023/01/09 05:38:53;;;;;;;;;;;31.50;83.40;;;;;;5057263;28;19924;-73
2023/01/09 05:41:20;;;;;;;;;;;31.50;83.20;;;;;;5067786;28;20382;-74
2023/01/09 05:43:47;;;;;;;;;;;31.40;83.70;;;;;;5063969;28;20329;-76
2023/01/09 05:46:14;;;;;;;;;;;31.50;83.80;;;;;;5066517;28;19921;-75
2023/01/09 05:48:40;;;;;;;;;;;31.50;84.40;;;;;;5060209;28;19921;-72
2023/01/09 05:51:07;;;;;;;;;;;31.30;84.00;;;;;;5063845;28;20049;-71
2023/01/09 05:53:34;;;;;;;;;;;31.40;84.70;;;;;;5075275;28;19948;-72
2023/01/09 05:56:00;;;;;;;;;;;31.40;84.30;;;;;;5076555;28;19978;-72
2023/01/09 05:58:27;;;;;;;;;;;31.40;85.30;;;;;;5062203;28;20031;-71
2023/01/09 06:00:54;;;;;;;;;;;31.40;84.30;;;;;;5067827;28;19916;-73
2023/01/09 06:03:20;;;;;;;;;;;31.30;84.50;;;;;;5067192;28;19954;-73
2023/01/09 06:05:47;;;;;;;;;;;31.20;85.10;;;;;;5053987;28;19920;-72
2023/01/09 06:08:14;;;;;;;;;;;31.10;85.60;;;;;;5059617;28;19943;-72
2023/01/09 06:10:40;;;;;;;;;;;31.20;85.10;;;;;;5061459;28;20065;-72
2023/01/09 06:13:07;;;;;;;;;;;31.20;84.90;;;;;;5062403;28;19999;-72
2023/01/09 06:15:33;;;;;;;;;;;31.10;84.70;;;;;;5064613;28;19920;-72
2023/01/09 06:18:00;;;;;;;;;;;31.00;84.60;;;;;;5068099;28;19912;-72
2023/01/09 06:20:27;;;;;;;;;;;30.80;85.10;;;;;;5060948;28;19916;-72
2023/01/09 06:22:53;;;;;;;;;;;30.70;85.60;;;;;;5059403;28;20751;-72
2023/01/09 06:25:20;;;;;;;;;;;30.60;85.50;;;;;;5067070;28;19920;-72
2023/01/09 06:27:47;;;;;;;;;;;30.40;85.90;;;;;;5069424;28;20013;-73
2023/01/09 06:30:13;;;;;;;;;;;30.40;86.40;;;;;;5070756;28;20378;-72
2023/01/09 06:32:40;;;;;;;;;;;30.40;86.60;;;;;;5066043;28;19915;-72
2023/01/09 06:35:07;;;;;;;;;;;30.40;86.60;;;;;;5067617;28;19919;-74
2023/01/09 06:37:38;;;;;;;;;;;30.30;86.80;;;;;;5060480;28;19983;-71
2023/01/09 06:40:04;;;;;;;;;;;30.20;87.20;;;;;;5051103;28;20288;-72
2023/01/09 06:42:31;;;;;;;;;;;30.00;87.20;;;;;;5061719;28;19991;-70
2023/01/09 06:44:58;;;;;;;;;;;29.90;87.20;;;;;;5070232;28;19983;-70
2023/01/09 06:47:25;;;;;;;;;;;29.80;87.90;;;;;;5063528;28;19916;-71
2023/01/09 06:49:51;;;;;;;;;;;29.80;88.00;;;;;;5067030;28;20011;-72
2023/01/09 06:52:18;;;;;;;;;;;29.70;87.90;;;;;;5063415;28;20063;-71
2023/01/09 06:54:45;;;;;;;;;;;29.70;88.40;;;;;;5068354;28;19924;-73
2023/01/09 06:57:13;;;;;;;;;;;29.60;88.10;;;;;;5063126;28;20533;-72
2023/01/09 06:59:40;;;;;;;;;;;29.60;88.40;;;;;;5054159;28;19924;-72
2023/01/09 07:02:14;;;;;;;;;;;29.40;88.40;;;;;;5070567;28;20026;-71
2023/01/09 07:04:40;;;;;;;;;;;29.30;88.50;;;;;;5069719;28;19928;-70
2023/01/09 07:07:07;;;;;;;;;;;29.10;88.40;;;;;;5065389;28;19916;-72
2023/01/09 07:09:34;;;;;;;;;;;29.10;88.40;;;;;;5061788;28;19927;-72
2023/01/09 07:12:00;;;;;;;;;;;29.00;89.60;;;;;;5070173;28;20007;-70
2023/01/09 07:14:27;;;;;;;;;;;28.90;89.80;;;;;;5069393;28;19916;-71
2023/01/09 07:16:54;;;;;;;;;;;28.80;89.90;;;;;;5069082;28;19920;-72
2023/01/09 07:19:20;;;;;;;;;;;28.70;90.00;;;;;;5067948;28;19946;-71
2023/01/09 07:21:47;;;;;;;;;;;28.60;89.60;;;;;;5066362;28;19921;-72
2023/01/09 07:24:14;;;;;;;;;;;28.50;89.50;;;;;;5057830;28;19947;-72
2023/01/09 07:26:40;;;;;;;;;;;28.40;89.70;;;;;;5064004;28;19920;-72
2023/01/09 07:29:07;;;;;;;;;;;28.20;90.00;;;;;;5061256;28;20355;-72
2023/01/09 07:31:34;;;;;;;;;;;28.20;90.00;;;;;;5066593;28;19916;-70
2023/01/09 07:34:00;;;;;;;;;;;28.10;89.60;;;;;;5061916;28;19926;-70
2023/01/09 07:36:27;;;;;;;;;;;28.00;90.00;;;;;;5059801;28;20035;-72
2023/01/09 07:38:54;;;;;;;;;;;28.00;89.90;;;;;;5063493;28;19963;-71
2023/01/09 07:41:20;;;;;;;;;;;28.00;90.10;;;;;;5058671;28;19936;-72
2023/01/09 07:43:47;;;;;;;;;;;27.90;90.10;;;;;;5065522;28;19957;-71
2023/01/09 07:46:14;;;;;;;;;;;27.90;89.90;;;;;;5065535;28;20352;-72
2023/01/09 07:48:40;;;;;;;;;;;27.80;89.70;;;;;;5066497;28;19913;-73
2023/01/09 07:51:09;;;;;;;;;;;27.70;89.70;;;;;;5058589;28;19916;-69
2023/01/09 07:53:35;;;;;;;;;;;27.70;89.40;;;;;;5074781;28;19912;-70
2023/01/09 07:56:02;;;;;;;;;;;27.60;89.10;;;;;;5067808;28;20381;-71
2023/01/09 07:58:29;;;;;;;;;;;27.60;89.80;;;;;;5064930;28;20011;-74
2023/01/09 08:00:55;;;;;;;;;;;27.50;89.80;;;;;;5070118;28;19952;-73
2023/01/09 08:03:22;;;;;;;;;;;27.40;90.00;;;;;;5069467;28;19912;-70
2023/01/09 08:05:49;;;;;;;;;;;27.40;90.40;;;;;;5069811;28;19920;-70
2023/01/09 08:08:16;;;;;;;;;;;27.20;90.40;;;;;;5067843;28;20524;-72
2023/01/09 08:10:43;;;;;;;;;;;27.20;90.40;;;;;;5064128;28;19936;-71
2023/01/09 08:13:09;;;;;;;;;;;27.10;90.30;;;;;;5064816;28;19917;-71
2023/01/09 08:15:36;;;;;;;;;;;27.00;90.20;;;;;;5069908;28;19924;-70
2023/01/09 08:18:03;;;;;;;;;;;26.90;90.20;;;;;;5070073;28;19912;-71
2023/01/09 08:20:30;;;;;;;;;;;26.90;90.40;;;;;;5072873;28;19970;-71
2023/01/09 08:22:56;;;;;;;;;;;26.80;90.50;;;;;;5069370;28;20378;-72
2023/01/09 08:25:23;;;;;;;;;;;26.70;90.40;;;;;;5064562;28;19928;-71
2023/01/09 08:27:49;;;;;;;;;;;26.60;90.60;;;;;;5062624;28;19943;-71
2023/01/09 08:30:17;;;;;;;;;;;26.50;90.50;;;;;;5063204;28;20394;-71
2023/01/09 08:32:47;;;;;;;;;;;26.30;90.60;;;;;;5057468;28;19916;-72
2023/01/09 08:35:14;;;;;;;;;;;26.10;91.20;;;;;;5061195;28;20016;-73
2023/01/09 08:37:44;;;;;;;;;;;25.90;91.00;;;;;;5071633;28;19924;-74
2023/01/09 08:40:12;;;;;;;;;;;25.80;91.10;;;;;;5068856;28;19924;-73
2023/01/09 08:48:08;;;;;;;;;;;25.40;91.90;;;;;;5071416;28;20016;-73
2023/01/09 08:50:35;;;;;;;;;;;25.30;92.10;;;;;;5073962;28;19912;-72
2023/01/09 08:53:01;;;;;;;;;;;25.20;91.50;;;;;;5064700;28;20362;-74
2023/01/09 08:55:28;;;;;;;;;;;25.10;91.30;;;;;;5084662;28;20270;-73
2023/01/09 08:57:55;;;;;;;;;;;25.00;91.20;;;;;;5066195;28;19913;-73
2023/01/09 09:00:23;;;;;;;;;;;25.00;91.30;;;;;;5064776;28;19913;-74
2023/01/09 09:02:53;;;;;;;;;;;24.90;91.40;;;;;;5061866;28;19923;-73
2023/01/09 09:05:20;;;;;;;;;;;24.80;91.60;;;;;;5060400;28;20522;-72
2023/01/09 09:07:48;;;;;;;;;;;24.70;91.80;;;;;;5071528;28;20113;-71
2023/01/09 09:10:18;;;;;;;;;;;24.60;92.00;;;;;;5072755;28;19916;-71
2023/01/09 09:12:49;;;;;;;;;;;24.60;92.20;;;;;;5070238;28;20026;-72
2023/01/09 09:15:22;;;;;;;;;;;24.50;92.40;;;;;;5058074;28;19917;-73
2023/01/09 09:17:50;;;;;;;;;;;24.40;92.70;;;;;;5068051;28;19927;-72
2023/01/09 09:20:16;;;;;;;;;;;24.30;93.10;;;;;;5069442;28;19974;-72
2023/01/09 09:22:44;;;;;;;;;;;24.20;93.20;;;;;;5067732;28;19939;-72
2023/01/09 09:25:11;;;;;;;;;;;24.10;93.50;;;;;;5072286;28;19921;-73
2023/01/09 09:27:38;;;;;;;;;;;24.00;93.50;;;;;;5068829;28;19973;-72
2023/01/09 09:30:05;;;;;;;;;;;23.90;93.70;;;;;;5062537;28;19923;-72
2023/01/09 09:32:32;;;;;;;;;;;23.70;94.10;;;;;;5070246;28;19912;-73
2023/01/09 09:34:59;;;;;;;;;;;23.70;94.10;;;;;;5073202;28;19938;-72
2023/01/09 09:37:25;;;;;;;;;;;23.60;94.30;;;;;;5072947;28;19913;-72
2023/01/09 09:39:52;;;;;;;;;;;23.50;93.80;;;;;;5061776;28;20432;-73
2023/01/09 09:45:06;;;;;;;;;;;23.30;93.50;;;;;;5064860;28;20510;-73
2023/01/09 09:47:48;;;;;;;;;;;23.20;93.40;;;;;;5062526;28;19917;-72
2023/01/09 09:50:23;;;;;;;;;;;23.20;93.90;;;;;;5062732;28;19913;-72
2023/01/09 09:52:59;;;;;;;;;;;23.10;94.10;;;;;;5059398;28;19917;-72
2023/01/09 09:55:30;;;;;;;;;;;23.20;94.00;;;;;;5069570;28;19923;-71
2023/01/09 09:57:59;;;;;;;;;;;23.10;94.40;;;;;;5070733;28;20366;-72
2023/01/09 10:00:26;;;;;;;;;;;23.00;94.60;;;;;;5067724;28;20018;-71
2023/01/09 10:02:56;;;;;;;;;;;23.00;94.70;;;;;;5063857;28;20221;-70
2023/01/09 10:05:37;;;;;;;;;;;22.80;94.90;;;;;;5062181;28;19964;-72
2023/01/09 10:08:23;;;;;;;;;;;22.70;95.30;;;;;;5065387;28;19924;-71
2023/01/09 10:10:52;;;;;;;;;;;22.70;95.50;;;;;;5067196;28;19970;-71
2023/01/09 10:16:23;;;;;;;;;;;22.70;96.00;;;;;;5061203;28;19919;-71
2023/01/09 10:19:08;;;;;;;;;;;22.70;95.80;;;;;;5057759;28;19913;-70
2023/01/09 10:21:51;;;;;;;;;;;22.70;96.20;;;;;;5062394;28;20068;-70
2023/01/09 10:24:30;;;;;;;;;;;22.60;96.70;;;;;;5069272;28;20380;-72
2023/01/09 10:26:57;;;;;;;;;;;22.50;96.90;;;;;;5070404;28;19921;-72
2023/01/09 10:29:26;;;;;;;;;;;22.40;96.90;;;;;;5068435;28;19923;-72
2023/01/09 10:32:09;;;;;;;;;;;22.30;97.10;;;;;;5060674;28;19986;-72
2023/01/09 10:34:38;;;;;;;;;;;22.20;97.40;;;;;;5060031;28;19912;-70
2023/01/09 10:37:15;;;;;;;;;;;22.10;97.50;;;;;;5059015;28;20007;-71
2023/01/09 10:39:44;;;;;;;;;;;21.90;98.00;;;;;;5062837;28;19928;-71
2023/01/09 10:42:30;;;;;;;;;;;21.90;98.40;;;;;;5067254;28;20275;-72
2023/01/09 10:45:02;;;;;;;;;;;21.80;98.60;;;;;;5066350;28;20430;-72
2023/01/09 10:47:33;;;;;;;;;;;21.70;98.90;;;;;;5061490;28;20318;-72
2023/01/09 10:50:01;;;;;;;;;;;21.70;99.00;;;;;;5067466;28;19916;-73
2023/01/09 10:52:37;;;;;;;;;;;21.60;99.00;;;;;;5067923;28;19966;-72
2023/01/09 10:55:18;;;;;;;;;;;21.50;99.20;;;;;;5075910;28;19920;-73
2023/01/09 10:57:46;;;;;;;;;;;21.50;99.60;;;;;;5058573;28;19962;-74
2023/01/09 11:00:14;;;;;;;;;;;21.40;99.90;;;;;;5062567;28;20277;-73
2023/01/09 11:02:41;;;;;;;;;;;21.20;99.90;;;;;;5066473;28;19970;-74
2023/01/09 11:05:11;;;;;;;;;;;21.10;99.90;;;;;;5057844;28;19920;-72
2023/01/09 11:07:39;;;;;;;;;;;21.10;99.90;;;;;;5058600;28;19913;-73
2023/01/09 11:10:08;;;;;;;;;;;20.90;99.90;;;;;;5059633;28;19970;-72
2023/01/09 11:12:35;;;;;;;;;;;20.90;99.90;;;;;;5059112;28;19920;-73
2023/01/09 11:15:26;;;;;;;;;;;20.70;99.90;;;;;;5068349;28;19991;-72
2023/01/09 11:17:53;;;;;;;;;;;20.70;99.90;;;;;;5062417;28;19913;-73
2023/01/09 11:20:24;;;;;;;;;;;20.60;99.90;;;;;;5073689;28;19939;-73
2023/01/09 11:22:53;;;;;;;;;;;20.50;99.90;;;;;;5061019;28;19992;-72
2023/01/09 11:25:21;;;;;;;;;;;20.50;99.90;;;;;;5058663;28;20032;-73
2023/01/09 11:28:05;;;;;;;;;;;20.50;99.90;;;;;;5064021;28;19921;-76
2023/01/09 11:30:35;;;;;;;;;;;20.50;99.90;;;;;;5067125;28;19927;-74
2023/01/09 11:33:13;;;;;;;;;;;20.50;99.90;;;;;;5067553;28;19923;-73
2023/01/09 11:35:54;;;;;;;;;;;20.40;99.90;;;;;;5059973;28;20001;-74
2023/01/09 11:38:21;;;;;;;;;;;20.30;99.90;;;;;;5063191;28;19916;-73
2023/01/09 11:40:48;;;;;;;;;;;20.20;99.90;;;;;;5069003;28;19928;-74
2023/01/09 11:43:17;;;;;;;;;;;20.20;99.90;;;;;;5066645;28;19919;-72
2023/01/09 11:45:46;;;;;;;;;;;20.10;99.90;;;;;;5065355;28;19924;-72
2023/01/09 11:48:39;;;;;;;;;;;20.00;99.90;;;;;;5064464;28;20313;-72
2023/01/09 11:51:16;;;;;;;;;;;19.90;99.90;;;;;;5048843;28;19935;-72
2023/01/09 11:53:50;;;;;;;;;;;19.90;99.90;;;;;;5067675;28;19919;-72
2023/01/09 11:56:17;;;;;;;;;;;19.80;99.90;;;;;;5067864;28;19940;-72
2023/01/09 11:58:44;;;;;;;;;;;19.80;99.90;;;;;;5065658;28;19922;-72
2023/01/09 12:01:28;;;;;;;;;;;19.70;99.90;;;;;;5069592;28;19952;-72
2023/01/09 12:04:06;;;;;;;;;;;19.70;99.90;;;;;;5057647;28;19917;-72
2023/01/09 12:06:42;;;;;;;;;;;19.70;99.90;;;;;;5067778;28;19934;-73
2023/01/09 12:09:28;;;;;;;;;;;19.70;99.90;;;;;;5067113;28;19931;-72
2023/01/09 12:12:13;;;;;;;;;;;19.60;99.90;;;;;;5047574;28;19956;-72
2023/01/09 12:14:46;;;;;;;;;;;19.60;99.90;;;;;;5059821;28;20399;-71
2023/01/09 12:17:31;;;;;;;;;;;19.70;99.90;;;;;;5062007;28;19916;-72
2023/01/09 12:20:16;;;;;;;;;;;19.70;99.90;;;;;;5068812;28;20018;-72
2023/01/09 12:22:43;;;;;;;;;;;19.70;99.90;;;;;;5067967;28;19962;-72
2023/01/09 12:25:16;;;;;;;;;;;19.60;99.90;;;;;;5068451;28;19927;-72
2023/01/09 12:27:54;;;;;;;;;;;19.60;99.90;;;;;;5051440;28;19970;-72
2023/01/09 12:30:33;;;;;;;;;;;19.50;99.90;;;;;;5065040;28;19959;-72
2023/01/09 12:33:15;;;;;;;;;;;19.50;99.90;;;;;;5066576;28;19920;-72
2023/01/09 12:35:48;;;;;;;;;;;19.40;99.90;;;;;;5068476;28;20329;-70
2023/01/09 12:38:30;;;;;;;;;;;19.30;99.90;;;;;;5065662;28;20383;-72
2023/01/09 12:41:15;;;;;;;;;;;19.30;99.90;;;;;;5068433;28;19928;-72
2023/01/09 12:43:44;;;;;;;;;;;19.20;99.90;;;;;;5064579;28;19920;-71
2023/01/09 12:46:18;;;;;;;;;;;19.20;99.90;;;;;;5077689;28;20398;-72
2023/01/09 12:48:57;;;;;;;;;;;19.20;99.90;;;;;;5061069;28;20282;-72
2023/01/09 12:51:24;;;;;;;;;;;19.10;99.90;;;;;;5064060;28;19924;-72
2023/01/09 12:53:55;;;;;;;;;;;19.00;99.90;;;;;;5067930;28;19923;-72
2023/01/09 12:56:24;;;;;;;;;;;19.00;99.90;;;;;;5068485;28;20345;-71
2023/01/09 12:59:00;;;;;;;;;;;19.10;99.90;;;;;;5056193;28;19921;-72
2023/01/09 13:01:29;;;;;;;;;;;19.00;99.90;;;;;;5065980;28;19920;-71
2023/01/09 13:04:01;;;;;;;;;;;18.90;99.90;;;;;;5057271;28;19947;-72
2023/01/09 13:06:28;;;;;;;;;;;18.90;99.90;;;;;;5072894;28;20043;-71
2023/01/09 13:09:06;;;;;;;;;;;18.80;99.90;;;;;;5068186;28;20015;-72
2023/01/09 13:11:55;;;;;;;;;;;18.80;99.90;;;;;;5059152;28;19949;-72
2023/01/09 13:14:45;;;;;;;;;;;18.70;99.90;;;;;;5069986;28;19923;-71
2023/01/09 13:17:21;;;;;;;;;;;18.60;99.90;;;;;;5057087;28;19924;-71
2023/01/09 13:19:48;;;;;;;;;;;18.50;99.90;;;;;;5071534;28;20358;-71
2023/01/09 13:22:16;;;;;;;;;;;18.50;99.90;;;;;;5072866;28;19912;-71
2023/01/09 13:24:55;;;;;;;;;;;18.40;99.90;;;;;;5071237;28;20009;-72
2023/01/09 13:27:24;;;;;;;;;;;18.30;99.90;;;;;;5061939;28;19916;-70
2023/01/09 13:29:54;;;;;;;;;;;18.30;99.90;;;;;;5057954;28;20282;-71
2023/01/09 13:32:21;;;;;;;;;;;18.30;99.90;;;;;;5071542;28;20001;-72
2023/01/09 13:34:51;;;;;;;;;;;18.30;99.90;;;;;;5054758;28;19917;-71
2023/01/09 13:37:21;;;;;;;;;;;18.20;99.90;;;;;;5069872;28;20019;-72
2023/01/09 13:39:54;;;;;;;;;;;18.20;99.90;;;;;;5053892;28;19924;-70
2023/01/09 13:42:38;;;;;;;;;;;18.20;99.90;;;;;;5073636;28;19913;-71
2023/01/09 13:45:10;;;;;;;;;;;18.20;99.90;;;;;;5053762;28;20015;-72
2023/01/09 13:47:37;;;;;;;;;;;18.20;99.90;;;;;;5070666;28;19912;-71
2023/01/09 13:50:10;;;;;;;;;;;18.20;99.90;;;;;;5055568;28;19921;-71
2023/01/09 13:52:43;;;;;;;;;;;18.20;99.90;;;;;;5068257;28;20334;-71
2023/01/09 13:55:15;;;;;;;;;;;18.20;99.90;;;;;;5084977;28;19916;-72
2023/01/09 13:58:02;;;;;;;;;;;18.20;99.90;;;;;;5058695;28;20005;-71
2023/01/09 14:00:28;;;;;;;;;;;18.10;99.90;;;;;;5067656;28;20738;-72
2023/01/09 14:02:56;;;;;;;;;;;18.10;99.90;;;;;;5069819;28;19923;-71
2023/01/09 14:05:23;;;;;;;;;;;18.10;99.90;;;;;;5070653;28;19929;-71
2023/01/09 14:08:09;;;;;;;;;;;18.00;99.90;;;;;;5069723;28;20319;-71
2023/01/09 14:10:37;;;;;;;;;;;18.00;99.90;;;;;;5064325;28;20354;-71
2023/01/09 14:13:22;;;;;;;;;;;18.00;99.90;;;;;;5070830;28;19917;-73
2023/01/09 14:15:50;;;;;;;;;;;17.90;99.90;;;;;;5072099;28;19912;-72
2023/01/09 14:18:18;;;;;;;;;;;17.90;99.90;;;;;;5070011;28;19913;-72
2023/01/09 14:20:51;;;;;;;;;;;17.90;99.90;;;;;;5070388;28;20382;-72
2023/01/09 14:23:22;;;;;;;;;;;17.90;99.90;;;;;;5059718;28;20424;-72
2023/01/09 14:25:50;;;;;;;;;;;17.90;99.90;;;;;;5069517;28;19924;-72
2023/01/09 14:28:20;;;;;;;;;;;17.90;99.90;;;;;;5062456;28;19917;-72
2023/01/09 14:30:53;;;;;;;;;;;17.80;99.90;;;;;;5071100;28;20279;-71
2023/01/09 14:33:25;;;;;;;;;;;17.80;99.90;;;;;;5071478;28;19942;-72
2023/01/09 14:36:10;;;;;;;;;;;17.80;99.90;;;;;;5071218;28;20302;-72
2023/01/09 14:38:39;;;;;;;;;;;17.80;99.90;;;;;;5066836;28;19938;-72
2023/01/09 14:41:06;;;;;;;;;;;17.80;99.90;;;;;;5071241;28;20039;-71
2023/01/09 14:43:53;;;;;;;;;;;17.80;99.90;;;;;;5069443;28;19912;-72
2023/01/09 14:46:20;;;;;;;;;;;17.70;99.90;;;;;;5060096;28;19936;-72